createdAt,value
2017-09-07T00:00:35.905Z,980.6
2017-09-07T00:01:38.052Z,980.6
2017-09-07T00:02:40.451Z,980.6
2017-09-07T00:03:42.536Z,980.6
2017-09-07T00:04:44.609Z,980.6
2017-09-07T00:05:46.673Z,980.6
2017-09-07T00:06:48.750Z,980.6
2017-09-07T00:07:51.208Z,980.6
2017-09-07T00:08:53.304Z,980.6
2017-09-07T00:09:55.404Z,980.6
2017-09-07T00:10:57.503Z,980.6
2017-09-07T00:11:59.604Z,980.6
2017-09-07T00:13:01.998Z,980.6
2017-09-07T00:14:04.040Z,980.5
2017-09-07T00:15:06.172Z,980.5
2017-09-07T00:16:08.263Z,980.5
2017-09-07T00:17:10.360Z,980.5
2017-09-07T00:18:13.287Z,980.6
2017-09-07T00:19:15.299Z,980.5
2017-09-07T00:20:17.458Z,980.6
2017-09-07T00:21:19.639Z,980.5
2017-09-07T00:22:21.788Z,980.5
2017-09-07T00:23:24.226Z,980.5
2017-09-07T00:24:26.294Z,980.5
2017-09-07T00:25:28.448Z,980.5
2017-09-07T00:26:30.585Z,980.5
2017-09-07T00:27:32.686Z,980.5
2017-09-07T00:28:35.119Z,980.5
2017-09-07T00:29:37.265Z,980.5
2017-09-07T00:30:39.346Z,980.4
2017-09-07T00:31:41.488Z,980.5
2017-09-07T00:32:43.650Z,980.4
2017-09-07T00:33:46.142Z,980.4
2017-09-07T00:34:48.182Z,980.4
2017-09-07T00:35:50.285Z,980.5
2017-09-07T00:36:52.412Z,980.4
2017-09-07T00:37:54.598Z,980.4
2017-09-07T00:38:56.981Z,980.4
2017-09-07T00:39:59.137Z,980.4
2017-09-07T00:41:01.223Z,980.3
2017-09-07T00:42:03.306Z,980.4
2017-09-07T00:43:05.406Z,980.4
2017-09-07T00:44:07.834Z,980.4
2017-09-07T00:45:09.916Z,980.3
2017-09-07T00:46:12.074Z,980.4
2017-09-07T00:47:14.160Z,980.4
2017-09-07T00:48:16.207Z,980.3
2017-09-07T00:49:18.657Z,980.3
2017-09-07T00:50:20.777Z,980.3
2017-09-07T00:51:22.830Z,980.4
2017-09-07T00:52:24.944Z,980.4
2017-09-07T00:53:27.032Z,980.4
2017-09-07T00:54:29.460Z,980.4
2017-09-07T00:55:31.486Z,980.4
2017-09-07T00:56:33.581Z,980.4
2017-09-07T00:57:35.642Z,980.4
2017-09-07T00:58:37.657Z,980.4
2017-09-07T00:59:39.945Z,980.4
2017-09-07T01:00:42.032Z,980.4
2017-09-07T01:01:44.126Z,980.4
2017-09-07T01:02:46.220Z,980.4
2017-09-07T01:03:48.309Z,980.4
2017-09-07T01:04:50.740Z,980.4
2017-09-07T01:05:52.828Z,980.4
2017-09-07T01:06:54.862Z,980.4
2017-09-07T01:07:56.928Z,980.4
2017-09-07T01:08:58.962Z,980.4
2017-09-07T01:10:01.341Z,980.4
2017-09-07T01:11:03.453Z,980.4
2017-09-07T01:12:05.479Z,980.4
2017-09-07T01:13:07.530Z,980.4
2017-09-07T01:14:09.595Z,980.4
2017-09-07T01:15:11.937Z,980.4
2017-09-07T01:16:14.002Z,980.4
2017-09-07T01:17:16.038Z,980.4
2017-09-07T01:18:18.105Z,980.3
2017-09-07T01:19:20.208Z,980.4
2017-09-07T01:20:22.620Z,980.4
2017-09-07T01:21:24.664Z,980.3
2017-09-07T01:22:26.717Z,980.3
2017-09-07T01:23:28.771Z,980.4
2017-09-07T01:24:30.846Z,980.4
2017-09-07T01:25:33.202Z,980.4
2017-09-07T01:26:35.306Z,980.4
2017-09-07T01:27:37.399Z,980.3
2017-09-07T01:28:39.485Z,980.3
2017-09-07T01:29:41.573Z,980.3
2017-09-07T01:30:43.941Z,980.4
2017-09-07T01:31:46.020Z,980.3
2017-09-07T01:32:48.088Z,980.3
2017-09-07T01:33:50.307Z,980.3
2017-09-07T01:34:52.347Z,980.4
2017-09-07T01:35:54.649Z,980.4
2017-09-07T01:36:56.772Z,980.4
2017-09-07T01:37:58.802Z,980.3
2017-09-07T01:39:00.844Z,980.4
2017-09-07T01:40:02.914Z,980.3
2017-09-07T01:41:05.271Z,980.4
2017-09-07T01:42:07.313Z,980.3
2017-09-07T01:43:09.402Z,980.3
2017-09-07T01:44:11.430Z,980.3
2017-09-07T01:45:13.490Z,980.3
2017-09-07T01:46:15.819Z,980.3
2017-09-07T01:47:17.847Z,980.3
2017-09-07T01:48:19.859Z,980.3
2017-09-07T01:49:21.874Z,980.3
2017-09-07T01:50:23.883Z,980.3
2017-09-07T01:51:26.336Z,980.2
2017-09-07T01:52:28.433Z,980.3
2017-09-07T01:53:30.462Z,980.3
2017-09-07T01:54:32.498Z,980.2
2017-09-07T01:55:34.561Z,980.3
2017-09-07T01:56:36.843Z,980.3
2017-09-07T01:57:38.901Z,980.3
2017-09-07T01:58:40.953Z,980.2
2017-09-07T01:59:43.672Z,980.2
2017-09-07T02:00:45.744Z,980.2
2017-09-07T02:01:48.115Z,980.2
2017-09-07T02:02:50.176Z,980.3
2017-09-07T02:03:52.221Z,980.3
2017-09-07T02:04:54.274Z,980.3
2017-09-07T02:05:56.329Z,980.3
2017-09-07T02:06:58.668Z,980.3
2017-09-07T02:08:00.695Z,980.2
2017-09-07T02:09:02.736Z,980.2
2017-09-07T02:10:04.800Z,980.2
2017-09-07T02:11:06.884Z,980.2
2017-09-07T02:12:09.231Z,980.3
2017-09-07T02:13:11.310Z,980.2
2017-09-07T02:14:13.386Z,980.2
2017-09-07T02:15:15.456Z,980.3
2017-09-07T02:16:17.527Z,980.2
2017-09-07T02:17:19.978Z,980.2
2017-09-07T02:18:21.992Z,980.3
2017-09-07T02:19:23.997Z,980.2
2017-09-07T02:20:26.015Z,980.2
2017-09-07T02:21:28.109Z,980.2
2017-09-07T02:22:30.639Z,980.3
2017-09-07T02:23:32.684Z,980.2
2017-09-07T02:24:34.762Z,980.2
2017-09-07T02:25:36.816Z,980.2
2017-09-07T02:26:38.906Z,980.2
2017-09-07T02:27:41.309Z,980.2
2017-09-07T02:28:43.357Z,980.2
2017-09-07T02:29:45.375Z,980.2
2017-09-07T02:30:47.383Z,980.2
2017-09-07T02:31:49.523Z,980.2
2017-09-07T02:32:51.799Z,980.2
2017-09-07T02:33:53.818Z,980.2
2017-09-07T02:34:55.864Z,980.2
2017-09-07T02:35:57.888Z,980.2
2017-09-07T02:36:59.922Z,980.2
2017-09-07T02:38:02.331Z,980.2
2017-09-07T02:39:04.372Z,980.2
2017-09-07T02:40:06.437Z,980.2
2017-09-07T02:41:08.452Z,980.2
2017-09-07T02:42:10.656Z,980.2
2017-09-07T02:43:13.035Z,980.2
2017-09-07T02:44:15.087Z,980.2
2017-09-07T02:45:17.228Z,980.2
2017-09-07T02:46:19.296Z,980.2
2017-09-07T02:47:21.363Z,980.2
2017-09-07T02:48:23.736Z,980.2
2017-09-07T02:49:25.796Z,980.1
2017-09-07T02:50:27.824Z,980.2
2017-09-07T02:51:29.864Z,980.2
2017-09-07T02:52:31.897Z,980.2
2017-09-07T02:53:34.386Z,980.2
2017-09-07T02:54:36.415Z,980.2
2017-09-07T02:55:38.450Z,980.2
2017-09-07T02:56:40.486Z,980.2
2017-09-07T02:57:42.552Z,980.2
2017-09-07T02:58:44.834Z,980.1
2017-09-07T02:59:46.881Z,980.1
2017-09-07T03:00:48.899Z,980
2017-09-07T03:01:50.943Z,980.1
2017-09-07T03:02:52.964Z,980
2017-09-07T03:03:55.370Z,980
2017-09-07T03:04:57.435Z,980.1
2017-09-07T03:05:59.544Z,980
2017-09-07T03:07:01.606Z,980.1
2017-09-07T03:08:03.626Z,980.1
2017-09-07T03:09:06.031Z,980
2017-09-07T03:10:08.059Z,980.1
2017-09-07T03:11:10.129Z,980.1
2017-09-07T03:12:12.189Z,980.1
2017-09-07T03:13:14.219Z,980.1
2017-09-07T03:14:16.622Z,980.1
2017-09-07T03:15:18.695Z,980.2
2017-09-07T03:16:20.706Z,980.1
2017-09-07T03:17:22.747Z,980.1
2017-09-07T03:18:24.775Z,980.2
2017-09-07T03:19:27.338Z,980.1
2017-09-07T03:20:29.415Z,980.1
2017-09-07T03:21:31.488Z,980.1
2017-09-07T03:22:33.518Z,980
2017-09-07T03:23:35.560Z,980
2017-09-07T03:24:37.970Z,980
2017-09-07T03:25:39.999Z,980
2017-09-07T03:26:42.035Z,980
2017-09-07T03:27:44.069Z,980
2017-09-07T03:28:46.151Z,980
2017-09-07T03:29:48.839Z,980
2017-09-07T03:30:50.952Z,980
2017-09-07T03:31:53.003Z,980.1
2017-09-07T03:32:55.113Z,980.1
2017-09-07T03:33:57.195Z,980
2017-09-07T03:34:59.534Z,980.1
2017-09-07T03:36:01.564Z,980
2017-09-07T03:37:03.643Z,980
2017-09-07T03:38:05.710Z,980.1
2017-09-07T03:39:07.710Z,980
2017-09-07T03:40:10.043Z,980.1
2017-09-07T03:41:12.134Z,980.1
2017-09-07T03:42:14.167Z,980
2017-09-07T03:43:16.247Z,980
2017-09-07T03:44:18.360Z,980.1
2017-09-07T03:45:20.775Z,980.1
2017-09-07T03:46:22.787Z,980.1
2017-09-07T03:47:24.871Z,980.1
2017-09-07T03:48:26.908Z,980.1
2017-09-07T03:49:28.897Z,980.1
2017-09-07T03:50:31.308Z,980.1
2017-09-07T03:51:33.382Z,980.1
2017-09-07T03:52:35.472Z,980.1
2017-09-07T03:53:37.527Z,980.1
2017-09-07T03:54:39.611Z,980.1
2017-09-07T03:55:41.936Z,980.1
2017-09-07T03:56:44.092Z,980.1
2017-09-07T03:57:46.114Z,980.1
2017-09-07T03:58:48.156Z,980.1
2017-09-07T03:59:50.204Z,980.1
2017-09-07T04:00:52.584Z,980.1
2017-09-07T04:01:54.628Z,980.1
2017-09-07T04:02:56.679Z,980.1
2017-09-07T04:03:58.756Z,980.1
2017-09-07T04:05:00.765Z,980.1
2017-09-07T04:06:03.227Z,980.1
2017-09-07T04:07:05.272Z,980.1
2017-09-07T04:08:07.450Z,980
2017-09-07T04:09:09.491Z,980
2017-09-07T04:10:11.503Z,980
2017-09-07T04:11:13.888Z,980
2017-09-07T04:12:16.039Z,980
2017-09-07T04:13:18.068Z,980
2017-09-07T04:14:20.163Z,980
2017-09-07T04:15:22.269Z,980
2017-09-07T04:16:24.666Z,980.1
2017-09-07T04:17:26.771Z,979.9
2017-09-07T04:18:29.062Z,980
2017-09-07T04:19:31.114Z,980.1
2017-09-07T04:20:33.234Z,980
2017-09-07T04:21:35.669Z,979.9
2017-09-07T04:22:37.746Z,980
2017-09-07T04:23:39.769Z,980
2017-09-07T04:24:41.797Z,980.1
2017-09-07T04:25:43.895Z,980
2017-09-07T04:26:46.260Z,980.1
2017-09-07T04:27:48.291Z,980.1
2017-09-07T04:28:50.344Z,980.1
2017-09-07T04:29:52.425Z,980.1
2017-09-07T04:30:54.526Z,980.1
2017-09-07T04:31:56.946Z,980.1
2017-09-07T04:32:59.027Z,980.1
2017-09-07T04:34:01.066Z,980.1
2017-09-07T04:35:03.053Z,980.1
2017-09-07T04:36:05.114Z,980
2017-09-07T04:37:07.460Z,980.1
2017-09-07T04:38:09.491Z,980.1
2017-09-07T04:39:11.556Z,980.1
2017-09-07T04:40:13.616Z,980.1
2017-09-07T04:41:15.713Z,980.1
2017-09-07T04:42:18.196Z,980.1
2017-09-07T04:43:20.234Z,980.1
2017-09-07T04:44:22.301Z,980.1
2017-09-07T04:45:24.323Z,980.1
2017-09-07T04:46:26.392Z,980.2
2017-09-07T04:47:28.786Z,980.1
2017-09-07T04:48:30.892Z,980.1
2017-09-07T04:49:32.905Z,980.1
2017-09-07T04:50:34.948Z,980.1
2017-09-07T04:51:37.134Z,980.2
2017-09-07T04:52:39.461Z,980.2
2017-09-07T04:53:41.489Z,980.1
2017-09-07T04:54:43.583Z,980.1
2017-09-07T04:55:45.667Z,980.1
2017-09-07T04:56:47.685Z,980.2
2017-09-07T04:57:50.166Z,980.2
2017-09-07T04:58:52.240Z,980.2
2017-09-07T04:59:54.297Z,980.2
2017-09-07T05:00:56.347Z,980.2
2017-09-07T05:01:58.415Z,980.2
2017-09-07T05:03:00.773Z,980.2
2017-09-07T05:04:02.861Z,980.2
2017-09-07T05:05:04.953Z,980.3
2017-09-07T05:06:07.027Z,980.3
2017-09-07T05:07:09.099Z,980.3
2017-09-07T05:08:11.413Z,980.3
2017-09-07T05:09:13.493Z,980.3
2017-09-07T05:10:16.265Z,980.3
2017-09-07T05:11:18.340Z,980.4
2017-09-07T05:12:20.352Z,980.3
2017-09-07T05:13:22.670Z,980.3
2017-09-07T05:14:24.707Z,980.3
2017-09-07T05:15:26.740Z,980.3
2017-09-07T05:16:28.776Z,980.4
2017-09-07T05:17:30.912Z,980.3
2017-09-07T05:18:33.771Z,980.4
2017-09-07T05:19:35.795Z,980.4
2017-09-07T05:20:37.913Z,980.4
2017-09-07T05:21:39.932Z,980.4
2017-09-07T05:22:42.013Z,980.3
2017-09-07T05:23:44.629Z,980.4
2017-09-07T05:24:46.667Z,980.3
2017-09-07T05:25:48.723Z,980.4
2017-09-07T05:26:50.781Z,980.4
2017-09-07T05:27:52.836Z,980.4
2017-09-07T05:28:55.223Z,980.4
2017-09-07T05:29:57.228Z,980.4
2017-09-07T05:30:59.289Z,980.4
2017-09-07T05:32:01.345Z,980.4
2017-09-07T05:33:03.421Z,980.4
2017-09-07T05:34:05.946Z,980.4
2017-09-07T05:35:07.987Z,980.4
2017-09-07T05:36:10.027Z,980.4
2017-09-07T05:37:12.067Z,980.4
2017-09-07T05:38:14.102Z,980.5
2017-09-07T05:39:16.504Z,980.5
2017-09-07T05:40:18.692Z,980.5
2017-09-07T05:41:20.763Z,980.5
2017-09-07T05:42:22.778Z,980.5
2017-09-07T05:43:24.836Z,980.5
2017-09-07T05:44:27.276Z,980.4
2017-09-07T05:45:29.507Z,980.4
2017-09-07T05:46:31.563Z,980.4
2017-09-07T05:47:33.649Z,980.5
2017-09-07T05:48:35.699Z,980.5
2017-09-07T05:49:38.075Z,980.5
2017-09-07T05:50:40.230Z,980.5
2017-09-07T05:51:42.224Z,980.5
2017-09-07T05:52:44.258Z,980.6
2017-09-07T05:53:46.286Z,980.5
2017-09-07T05:54:48.642Z,980.5
2017-09-07T05:55:50.687Z,980.5
2017-09-07T05:56:52.738Z,980.6
2017-09-07T05:57:54.835Z,980.6
2017-09-07T05:58:56.880Z,980.6
2017-09-07T05:59:59.264Z,980.6
2017-09-07T06:01:01.338Z,980.6
2017-09-07T06:02:03.440Z,980.6
2017-09-07T06:03:05.546Z,980.6
2017-09-07T06:04:07.635Z,980.7
2017-09-07T06:05:10.067Z,980.6
2017-09-07T06:06:12.106Z,980.6
2017-09-07T06:07:14.181Z,980.6
2017-09-07T06:08:16.225Z,980.6
2017-09-07T06:09:18.337Z,980.6
2017-09-07T06:10:20.686Z,980.6
2017-09-07T06:11:22.717Z,980.6
2017-09-07T06:12:24.787Z,980.6
2017-09-07T06:13:26.846Z,980.7
2017-09-07T06:14:28.905Z,980.6
2017-09-07T06:15:31.232Z,980.7
2017-09-07T06:16:33.294Z,980.6
2017-09-07T06:17:35.320Z,980.7
2017-09-07T06:18:37.473Z,980.7
2017-09-07T06:19:39.518Z,980.6
2017-09-07T06:20:41.867Z,980.7
2017-09-07T06:21:43.924Z,980.6
2017-09-07T06:22:45.978Z,980.7
2017-09-07T06:23:48.047Z,980.7
2017-09-07T06:24:50.139Z,980.7
2017-09-07T06:25:52.432Z,980.7
2017-09-07T06:26:54.475Z,980.7
2017-09-07T06:27:56.522Z,980.7
2017-09-07T06:28:58.575Z,980.7
2017-09-07T06:30:00.695Z,980.7
2017-09-07T06:31:03.232Z,980.8
2017-09-07T06:32:05.301Z,980.7
2017-09-07T06:33:07.393Z,980.8
2017-09-07T06:34:09.448Z,980.8
2017-09-07T06:35:11.507Z,980.8
2017-09-07T06:36:13.807Z,980.8
2017-09-07T06:37:15.854Z,980.8
2017-09-07T06:38:17.874Z,980.8
2017-09-07T06:39:19.934Z,980.8
2017-09-07T06:40:21.949Z,980.7
2017-09-07T06:41:24.264Z,980.7
2017-09-07T06:42:26.327Z,980.8
2017-09-07T06:43:28.370Z,980.8
2017-09-07T06:44:30.519Z,980.8
2017-09-07T06:45:32.629Z,980.8
2017-09-07T06:46:34.974Z,980.8
2017-09-07T06:47:37.093Z,980.8
2017-09-07T06:48:39.140Z,980.8
2017-09-07T06:49:41.246Z,980.8
2017-09-07T06:50:43.287Z,980.8
2017-09-07T06:51:45.683Z,980.8
2017-09-07T06:52:47.719Z,980.8
2017-09-07T06:53:49.772Z,980.8
2017-09-07T06:54:51.802Z,980.8
2017-09-07T06:55:53.851Z,980.8
2017-09-07T06:56:56.374Z,980.8
2017-09-07T06:57:58.418Z,980.8
2017-09-07T06:59:00.486Z,980.7
2017-09-07T07:00:02.522Z,980.8
2017-09-07T07:01:04.579Z,980.8
2017-09-07T07:02:06.910Z,980.8
2017-09-07T07:03:09.000Z,980.8
2017-09-07T07:04:11.119Z,980.8
2017-09-07T07:05:13.184Z,980.8
2017-09-07T07:06:15.309Z,980.8
2017-09-07T07:07:17.671Z,980.8
2017-09-07T07:08:19.745Z,980.8
2017-09-07T07:09:21.938Z,980.8
2017-09-07T07:10:23.977Z,980.8
2017-09-07T07:11:26.009Z,980.8
2017-09-07T07:12:28.657Z,980.8
2017-09-07T07:13:30.663Z,980.8
2017-09-07T07:14:32.718Z,980.8
2017-09-07T07:15:34.794Z,980.8
2017-09-07T07:16:36.957Z,980.9
2017-09-07T07:17:39.384Z,980.8
2017-09-07T07:18:41.456Z,980.8
2017-09-07T07:19:43.535Z,980.8
2017-09-07T07:20:45.563Z,980.9
2017-09-07T07:21:47.660Z,980.9
2017-09-07T07:22:50.033Z,980.9
2017-09-07T07:23:52.127Z,980.9
2017-09-07T07:24:54.320Z,980.9
2017-09-07T07:25:56.401Z,980.9
2017-09-07T07:26:58.470Z,980.9
2017-09-07T07:28:00.905Z,981
2017-09-07T07:29:02.976Z,980.9
2017-09-07T07:30:05.121Z,980.9
2017-09-07T07:31:07.169Z,981
2017-09-07T07:32:09.250Z,980.9
2017-09-07T07:33:11.597Z,981
2017-09-07T07:34:13.613Z,981
2017-09-07T07:35:15.671Z,980.9
2017-09-07T07:36:17.770Z,980.9
2017-09-07T07:37:19.843Z,981
2017-09-07T07:38:22.305Z,981
2017-09-07T07:39:24.357Z,981.1
2017-09-07T07:40:26.438Z,981
2017-09-07T07:41:28.468Z,981
2017-09-07T07:42:30.713Z,981
2017-09-07T07:43:33.120Z,981
2017-09-07T07:44:35.207Z,981
2017-09-07T07:45:37.382Z,981
2017-09-07T07:46:39.436Z,981
2017-09-07T07:47:41.506Z,981
2017-09-07T07:48:43.891Z,981.1
2017-09-07T07:49:45.953Z,981.1
2017-09-07T07:50:48.147Z,981
2017-09-07T07:51:50.206Z,981.1
2017-09-07T07:52:52.621Z,981.1
2017-09-07T07:53:55.144Z,981.1
2017-09-07T07:54:57.215Z,981
2017-09-07T07:55:59.376Z,981.1
2017-09-07T07:57:01.425Z,981.1
2017-09-07T07:58:03.557Z,981.1
2017-09-07T07:59:06.008Z,981.1
2017-09-07T08:00:08.106Z,981.1
2017-09-07T08:01:10.184Z,981.1
2017-09-07T08:02:12.218Z,981.2
2017-09-07T08:03:14.335Z,981.1
2017-09-07T08:04:16.699Z,981.1
2017-09-07T08:05:18.781Z,981.1
2017-09-07T08:06:20.941Z,981.1
2017-09-07T08:07:23.023Z,981.1
2017-09-07T08:08:25.141Z,981
2017-09-07T08:09:27.542Z,981.1
2017-09-07T08:10:29.637Z,981
2017-09-07T08:11:31.735Z,981
2017-09-07T08:12:33.788Z,981
2017-09-07T08:13:35.875Z,981
2017-09-07T08:14:38.213Z,980.9
2017-09-07T08:15:40.234Z,980.8
2017-09-07T08:16:42.273Z,980.9
2017-09-07T08:17:44.298Z,980.9
2017-09-07T08:18:46.336Z,980.8
2017-09-07T08:19:48.746Z,980.8
2017-09-07T08:20:50.774Z,980.9
2017-09-07T08:21:53.326Z,980.9
2017-09-07T08:22:55.422Z,980.9
2017-09-07T08:23:57.507Z,980.9
2017-09-07T08:25:00.007Z,981
2017-09-07T08:26:02.074Z,981
2017-09-07T08:27:04.168Z,980.9
2017-09-07T08:28:06.385Z,981
2017-09-07T08:29:08.495Z,981
2017-09-07T08:30:11.440Z,981.1
2017-09-07T08:31:13.493Z,981
2017-09-07T08:32:15.860Z,981.1
2017-09-07T08:33:17.913Z,981.1
2017-09-07T08:34:19.958Z,981.1
2017-09-07T08:35:22.416Z,981.2
2017-09-07T08:36:24.458Z,981.2
2017-09-07T08:37:26.546Z,981.1
2017-09-07T08:38:28.568Z,981.1
2017-09-07T08:39:30.628Z,981.2
2017-09-07T08:40:32.941Z,981.3
2017-09-07T08:41:35.056Z,981.2
2017-09-07T08:42:37.095Z,981.3
2017-09-07T08:43:39.167Z,981.2
2017-09-07T08:44:41.790Z,981.2
2017-09-07T08:45:44.671Z,981.2
2017-09-07T08:46:47.010Z,981.2
2017-09-07T08:47:49.038Z,981.3
2017-09-07T08:48:51.752Z,981.3
2017-09-07T08:49:53.780Z,981.3
2017-09-07T08:50:57.702Z,981.2
2017-09-07T08:51:59.775Z,981.2
2017-09-07T08:53:01.835Z,981.3
2017-09-07T08:54:03.872Z,981.3
2017-09-07T08:55:05.916Z,981.3
2017-09-07T08:56:09.009Z,981.3
2017-09-07T08:57:11.072Z,981.3
2017-09-07T08:58:13.612Z,981.3
2017-09-07T08:59:15.717Z,981.4
2017-09-07T09:00:17.767Z,981.4
2017-09-07T09:01:20.122Z,981.2
2017-09-07T09:02:22.222Z,981.3
2017-09-07T09:03:24.341Z,981.4
2017-09-07T09:04:26.471Z,981.4
2017-09-07T09:05:28.539Z,981.5
2017-09-07T09:06:30.864Z,981.3
2017-09-07T09:07:32.960Z,981.2
2017-09-07T09:08:35.005Z,981.3
2017-09-07T09:09:37.108Z,981.4
2017-09-07T09:10:39.183Z,981.4
2017-09-07T09:11:41.617Z,981.3
2017-09-07T09:12:43.777Z,981.4
2017-09-07T09:13:45.841Z,981.3
2017-09-07T09:14:47.941Z,981.2
2017-09-07T09:15:50.120Z,981.2
2017-09-07T09:16:52.624Z,981.2
2017-09-07T09:17:54.755Z,981.2
2017-09-07T09:18:56.877Z,981.3
2017-09-07T09:19:58.985Z,981.1
2017-09-07T09:21:01.040Z,981.1
2017-09-07T09:22:03.465Z,981.1
2017-09-07T09:23:05.547Z,981.1
2017-09-07T09:24:08.597Z,981.1
2017-09-07T09:25:10.729Z,981
2017-09-07T09:26:12.850Z,980.8
2017-09-07T09:27:15.321Z,980.9
2017-09-07T09:28:17.352Z,980.9
2017-09-07T09:29:19.418Z,980.8
2017-09-07T09:30:21.562Z,980.9
2017-09-07T09:31:23.651Z,980.8
2017-09-07T09:32:26.090Z,980.8
2017-09-07T09:33:28.175Z,980.8
2017-09-07T09:34:30.231Z,980.8
2017-09-07T09:35:32.329Z,980.9
2017-09-07T09:36:34.389Z,980.9
2017-09-07T09:37:36.761Z,980.8
2017-09-07T09:38:38.911Z,980.8
2017-09-07T09:39:40.985Z,980.8
2017-09-07T09:40:43.077Z,980.8
2017-09-07T09:41:45.151Z,980.8
2017-09-07T09:42:47.548Z,980.7
2017-09-07T09:43:49.758Z,980.7
2017-09-07T09:44:51.963Z,980.7
2017-09-07T09:45:54.087Z,980.7
2017-09-07T09:46:56.139Z,980.7
2017-09-07T09:47:58.525Z,980.6
2017-09-07T09:49:00.620Z,980.7
2017-09-07T09:50:02.645Z,980.6
2017-09-07T09:51:04.706Z,980.6
2017-09-07T09:52:06.760Z,980.6
2017-09-07T09:53:09.113Z,980.7
2017-09-07T09:54:11.190Z,980.6
2017-09-07T09:55:13.314Z,980.6
2017-09-07T09:56:15.507Z,980.6
2017-09-07T09:57:17.731Z,980.7
2017-09-07T09:58:20.097Z,980.6
2017-09-07T09:59:22.246Z,980.6
2017-09-07T10:00:24.316Z,980.6
2017-09-07T10:01:26.363Z,980.6
2017-09-07T10:02:28.443Z,980.6
2017-09-07T10:03:30.927Z,980.6
2017-09-07T10:04:33.059Z,980.6
2017-09-07T10:05:35.130Z,980.5
2017-09-07T10:06:37.155Z,980.6
2017-09-07T10:07:39.210Z,980.7
2017-09-07T10:08:41.574Z,980.6
2017-09-07T10:09:43.599Z,980.7
2017-09-07T10:10:45.649Z,980.7
2017-09-07T10:11:47.677Z,980.8
2017-09-07T10:12:49.790Z,981.2
2017-09-07T10:13:52.512Z,981
2017-09-07T10:14:54.714Z,981
2017-09-07T10:15:56.799Z,980.9
2017-09-07T10:16:58.886Z,980.9
2017-09-07T10:18:00.956Z,980.9
2017-09-07T10:19:03.307Z,980.9
2017-09-07T10:20:05.389Z,980.9
2017-09-07T10:21:07.467Z,980.8
2017-09-07T10:22:09.570Z,980.8
2017-09-07T10:23:11.605Z,980.8
2017-09-07T10:24:14.035Z,980.8
2017-09-07T10:25:16.095Z,980.8
2017-09-07T10:26:18.216Z,980.7
2017-09-07T10:27:20.386Z,980.8
2017-09-07T10:28:22.516Z,980.8
2017-09-07T10:29:24.921Z,980.7
2017-09-07T10:30:26.994Z,980.8
2017-09-07T10:31:29.210Z,980.6
2017-09-07T10:32:31.284Z,980.5
2017-09-07T10:33:33.359Z,980.6
2017-09-07T10:34:35.831Z,980.6
2017-09-07T10:35:37.997Z,980.5
2017-09-07T10:36:40.171Z,980.5
2017-09-07T10:37:42.245Z,980.5
2017-09-07T10:38:44.332Z,980.5
2017-09-07T10:39:46.686Z,980.3
2017-09-07T10:40:48.840Z,980.4
2017-09-07T10:41:50.933Z,980.5
2017-09-07T10:42:52.984Z,980.6
2017-09-07T10:43:55.083Z,980.6
2017-09-07T10:44:57.531Z,980.5
2017-09-07T10:45:59.583Z,980.5
2017-09-07T10:47:01.639Z,980.4
2017-09-07T10:48:03.747Z,980.5
2017-09-07T10:49:05.887Z,980.6
2017-09-07T10:50:08.276Z,980.6
2017-09-07T10:51:10.451Z,980.7
2017-09-07T10:52:12.574Z,980.7
2017-09-07T10:53:14.684Z,980.6
2017-09-07T10:54:16.764Z,980.7
2017-09-07T10:55:19.276Z,980.5
2017-09-07T10:56:21.355Z,980.5
2017-09-07T10:57:23.471Z,980.3
2017-09-07T10:58:25.666Z,980.3
2017-09-07T10:59:28.236Z,980.2
2017-09-07T11:00:31.239Z,980.4
2017-09-07T11:01:33.700Z,980.3
2017-09-07T11:02:35.815Z,980.2
2017-09-07T11:03:37.909Z,980.2
2017-09-07T11:04:40.449Z,980.2
2017-09-07T11:05:43.370Z,980.2
2017-09-07T11:06:45.427Z,980.2
2017-09-07T11:07:47.537Z,980.2
2017-09-07T11:08:49.582Z,980.2
2017-09-07T11:09:51.720Z,980.1
2017-09-07T11:10:54.445Z,980.1
2017-09-07T11:11:56.517Z,980.2
2017-09-07T11:12:59.267Z,980.2
2017-09-07T11:14:01.430Z,980.2
2017-09-07T11:15:03.498Z,980.1
2017-09-07T11:16:05.894Z,980.2
2017-09-07T11:17:07.981Z,980.2
2017-09-07T11:18:10.139Z,980.1
2017-09-07T11:19:12.191Z,980.1
2017-09-07T11:20:14.268Z,980
2017-09-07T11:21:16.707Z,980
2017-09-07T11:22:18.817Z,979.9
2017-09-07T11:23:20.940Z,980
2017-09-07T11:24:23.008Z,979.9
2017-09-07T11:25:25.093Z,979.9
2017-09-07T11:26:27.512Z,979.9
2017-09-07T11:27:29.606Z,979.9
2017-09-07T11:28:31.691Z,979.8
2017-09-07T11:29:33.745Z,979.9
2017-09-07T11:30:35.788Z,979.9
2017-09-07T11:31:38.250Z,979.9
2017-09-07T11:32:40.508Z,979.9
2017-09-07T11:33:42.606Z,979.9
2017-09-07T11:34:44.660Z,980
2017-09-07T11:35:46.752Z,980
2017-09-07T11:36:49.098Z,980
2017-09-07T11:37:51.148Z,980
2017-09-07T11:38:53.269Z,980.1
2017-09-07T11:39:55.338Z,980
2017-09-07T11:40:57.381Z,980
2017-09-07T11:41:59.892Z,979.9
2017-09-07T11:43:01.942Z,980
2017-09-07T11:44:04.063Z,980.1
2017-09-07T11:45:06.166Z,980
2017-09-07T11:46:08.243Z,980
2017-09-07T11:47:10.649Z,979.9
2017-09-07T11:48:12.756Z,980
2017-09-07T11:49:14.855Z,980
2017-09-07T11:50:16.939Z,980
2017-09-07T11:51:19.052Z,979.9
2017-09-07T11:52:21.571Z,979.9
2017-09-07T11:53:23.660Z,979.9
2017-09-07T11:54:25.817Z,980
2017-09-07T11:55:27.905Z,980
2017-09-07T11:56:30.004Z,980
2017-09-07T11:57:32.481Z,979.9
2017-09-07T11:58:34.578Z,980
2017-09-07T11:59:36.721Z,980
2017-09-07T12:00:38.962Z,979.9
2017-09-07T12:01:41.073Z,980
2017-09-07T12:02:43.452Z,980.1
2017-09-07T12:03:45.700Z,980.1
2017-09-07T12:04:47.850Z,980.1
2017-09-07T12:05:49.979Z,980.1
2017-09-07T12:06:52.136Z,980.1
2017-09-07T12:07:54.592Z,980.1
2017-09-07T12:08:56.716Z,980.1
2017-09-07T12:09:58.820Z,980.1
2017-09-07T12:11:00.957Z,980.1
2017-09-07T12:12:03.153Z,980
2017-09-07T12:13:05.521Z,980
2017-09-07T12:14:07.588Z,980
2017-09-07T12:15:09.701Z,980
2017-09-07T12:16:11.798Z,980
2017-09-07T12:17:13.895Z,980.1
2017-09-07T12:18:16.341Z,980.1
2017-09-07T12:19:18.430Z,980
2017-09-07T12:20:20.623Z,980
2017-09-07T12:21:22.711Z,979.9
2017-09-07T12:22:24.805Z,979.9
2017-09-07T12:23:27.377Z,979.9
2017-09-07T12:24:29.500Z,979.8
2017-09-07T12:25:31.564Z,979.9
2017-09-07T12:26:33.661Z,979.9
2017-09-07T12:27:35.790Z,979.9
2017-09-07T12:28:38.140Z,980
2017-09-07T12:29:44.111Z,980.1
2017-09-07T12:30:46.259Z,980
2017-09-07T12:31:48.386Z,979.9
2017-09-07T12:32:50.463Z,980
2017-09-07T12:33:52.906Z,979.9
2017-09-07T12:34:55.020Z,979.8
2017-09-07T12:35:57.165Z,979.8
2017-09-07T12:36:59.323Z,979.7
2017-09-07T12:38:01.445Z,979.8
2017-09-07T12:39:03.874Z,979.8
2017-09-07T12:40:06.012Z,979.8
2017-09-07T12:41:08.125Z,979.8
2017-09-07T12:42:10.356Z,979.8
2017-09-07T12:43:12.457Z,979.7
2017-09-07T12:44:14.943Z,979.7
2017-09-07T12:45:17.166Z,979.8
2017-09-07T12:46:19.263Z,979.8
2017-09-07T12:47:21.641Z,979.9
2017-09-07T12:48:23.769Z,979.8
2017-09-07T12:49:26.161Z,979.8
2017-09-07T12:50:28.273Z,979.8
2017-09-07T12:51:30.414Z,979.7
2017-09-07T12:52:32.483Z,979.8
2017-09-07T12:53:34.542Z,979.8
2017-09-07T12:54:36.892Z,979.8
2017-09-07T12:55:38.963Z,979.8
2017-09-07T12:56:41.074Z,979.7
2017-09-07T12:57:44.060Z,979.7
2017-09-07T12:58:46.194Z,979.7
2017-09-07T12:59:48.599Z,979.7
2017-09-07T13:00:50.699Z,979.7
2017-09-07T13:01:52.838Z,979.6
2017-09-07T13:02:54.895Z,979.5
2017-09-07T13:03:57.098Z,979.5
2017-09-07T13:04:59.528Z,979.6
2017-09-07T13:06:01.642Z,979.7
2017-09-07T13:07:03.855Z,979.7
2017-09-07T13:08:05.983Z,979.8
2017-09-07T13:09:08.178Z,979.6
2017-09-07T13:10:10.521Z,979.6
2017-09-07T13:11:12.605Z,979.5
2017-09-07T13:12:14.797Z,979.6
2017-09-07T13:13:16.894Z,979.5
2017-09-07T13:14:18.946Z,979.6
2017-09-07T13:15:21.417Z,979.5
2017-09-07T13:16:23.593Z,979.6
2017-09-07T13:17:25.651Z,979.5
2017-09-07T13:18:27.736Z,979.5
2017-09-07T13:19:29.820Z,979.5
2017-09-07T13:20:32.335Z,979.4
2017-09-07T13:21:34.493Z,979.4
2017-09-07T13:22:36.616Z,979.5
2017-09-07T13:23:39.012Z,979.4
2017-09-07T13:24:41.105Z,979.5
2017-09-07T13:25:43.499Z,979.5
2017-09-07T13:26:45.599Z,979.5